Time;durP1;ratioP1;P1;durP2;ratioP2;P2;SDS_P1;SDS_P2;PMS_P1;PMS_P2;Temp;Humidity;BMP_temperature;BMP_pressure;BME280_temperature;BME280_humidity;BME280_pressure;Samples;Min_cycle;Max_cycle;Signal;HPM_P1;HPM_P2
2022/01/20 00:00:52;;;;;;;65.22;30.23;;;;;;;-1.70;88.51;100988.20;1432153;89;21611;-80
2022/01/20 00:03:17;;;;;;;64.72;28.80;;;;;;;-1.72;88.88;100988.27;1446982;89;22455;-80
2022/01/20 00:27:56;;;;;;;67.37;28.30;;;;;;;-1.68;89.29;100991.59;1442321;88;21740;-80
2022/01/20 00:30:34;;;;;;;63.13;29.98;;;;;;;-1.71;89.33;100989.95;1445695;89;21508;-80
2022/01/20 00:32:57;;;;;;;57.20;26.55;;;;;;;-1.70;89.54;100989.03;1439358;88;21449;-80
2022/01/20 00:35:22;;;;;;;56.63;26.50;;;;;;;-1.74;89.27;100990.06;1437067;90;21473;-81
2022/01/20 00:37:47;;;;;;;70.17;28.90;;;;;;;-1.73;88.83;100983.12;1447465;89;21522;-80
2022/01/20 00:40:15;;;;;;;57.23;28.85;;;;;;;-1.76;89.66;100979.34;1447372;89;21478;-81
2022/01/20 00:42:42;;;;;;;63.83;25.97;;;;;;;-1.75;89.54;100986.24;1436482;89;22186;-81
2022/01/20 00:45:11;;;;;;;59.83;26.80;;;;;;;-1.74;89.33;100984.03;1437857;89;21530;-81
2022/01/20 00:47:39;;;;;;;55.20;26.27;;;;;;;-1.72;88.88;100979.64;1440146;88;22417;-81
2022/01/20 00:50:10;;;;;;;56.63;26.20;;;;;;;-1.71;88.98;100980.03;1453026;88;22270;-79
2022/01/20 00:52:38;;;;;;;59.08;24.02;;;;;;;-1.74;89.01;100980.98;1448430;89;21548;-80
2022/01/20 00:55:07;;;;;;;48.28;24.70;;;;;;;-1.78;88.92;100973.34;1439855;89;21472;-80
2022/01/20 00:57:34;;;;;;;53.23;27.60;;;;;;;-1.78;89.16;100972.92;1407225;89;21287;-80
2022/01/20 01:00:08;;;;;;;80.05;29.25;;;;;;;-1.73;88.70;100972.73;1448885;89;21350;-79
2022/01/20 01:02:36;;;;;;;59.38;25.43;;;;;;;-1.66;88.57;100969.03;1420029;91;21622;-79
2022/01/20 01:05:05;;;;;;;75.40;32.10;;;;;;;-1.63;88.71;100965.86;1405515;92;21538;-79
2022/01/20 01:07:51;;;;;;;66.90;29.67;;;;;;;-1.62;88.80;100964.11;1401049;93;22781;-79
2022/01/20 01:10:23;;;;;;;58.42;28.50;;;;;;;-1.57;88.38;100967.39;1389840;92;21512;-80
2022/01/20 01:13:12;;;;;;;59.48;28.17;;;;;;;-1.62;88.54;100960.22;1440538;89;22339;-81
2022/01/20 01:15:32;;;;;;;56.73;26.82;;;;;;;-1.65;88.51;100961.63;1424866;88;21467;-80
2022/01/20 01:23:40;;;;;;;59.18;28.05;;;;;;;-1.69;88.87;100956.17;1392245;92;21636;-81
2022/01/20 01:26:12;;;;;;;55.30;26.90;;;;;;;-1.66;88.19;100944.38;1397171;92;21482;-81
2022/01/20 01:28:41;;;;;;;61.28;30.32;;;;;;;-1.68;88.60;100945.72;1406994;92;21475;-80
2022/01/20 01:31:29;;;;;;;63.13;29.07;;;;;;;-1.67;88.24;100938.77;1408282;92;21457;-81
2022/01/20 01:33:41;;;;;;;56.13;28.55;;;;;;;-1.68;88.26;100939.69;1399522;92;22112;-80
2022/01/20 01:36:12;;;;;;;57.70;26.97;;;;;;;-1.73;88.10;100926.86;1402633;93;21486;-80
2022/01/20 01:38:37;;;;;;;62.00;29.30;;;;;;;-1.74;87.89;100927.78;1434381;89;21454;-81
2022/01/20 01:41:16;;;;;;;59.83;28.05;;;;;;;-1.77;87.88;100924.00;1439264;88;21747;-81
2022/01/20 01:43:49;;;;;;;55.73;28.35;;;;;;;-1.79;88.01;100915.42;1450257;89;21423;-80
2022/01/20 01:46:17;;;;;;;62.55;30.77;;;;;;;-1.82;88.44;100924.62;1436791;91;21956;-80
2022/01/20 01:48:45;;;;;;;71.72;33.75;;;;;;;-1.85;88.08;100913.89;1403417;92;21553;-80
2022/01/20 01:51:13;;;;;;;60.28;28.47;;;;;;;-1.85;88.30;100910.00;1425676;89;22361;-79
2022/01/20 01:53:41;;;;;;;64.58;29.67;;;;;;;-1.85;88.33;100903.98;1445587;89;21530;-81
2022/01/20 01:56:08;;;;;;;65.90;30.50;;;;;;;-1.86;88.63;100901.00;1443924;89;21578;-81
2022/01/20 01:58:35;;;;;;;66.85;28.67;;;;;;;-1.90;88.58;100900.27;1449177;88;21408;-81
2022/01/20 02:01:03;;;;;;;67.03;29.32;;;;;;;-1.90;88.24;100885.13;1437172;89;21339;-81
2022/01/20 02:03:33;;;;;;;71.50;31.90;;;;;;;-1.91;88.41;100892.08;1437865;88;21417;-81
2022/01/20 02:08:41;;;;;;;64.25;29.90;;;;;;;-1.87;88.26;100884.59;1451178;89;21501;-81
2022/01/20 02:19:26;;;;;;;51.50;26.20;;;;;;;-1.99;87.93;100872.05;1390095;92;21744;-79
2022/01/20 02:21:56;;;;;;;47.35;24.92;;;;;;;-2.08;88.18;100860.72;1399272;89;21493;-79
2022/01/20 02:24:23;;;;;;;54.45;25.77;;;;;;;-2.15;88.00;100856.22;1436125;90;22240;-80
2022/01/20 02:26:51;;;;;;;45.55;24.25;;;;;;;-2.23;88.34;100849.17;1435281;91;22479;-80
2022/01/20 02:29:18;;;;;;;53.13;24.12;;;;;;;-2.28;88.53;100834.22;1396033;92;21437;-80
2022/01/20 02:31:46;;;;;;;49.90;23.40;;;;;;;-2.33;88.97;100825.76;1448495;89;22392;-80
2022/01/20 02:34:16;;;;;;;48.15;25.68;;;;;;;-2.34;89.04;100827.51;1417179;91;21512;-80
2022/01/20 02:36:46;;;;;;;53.45;24.85;;;;;;;-2.38;89.38;100818.17;1413414;91;21493;-80
2022/01/20 02:47:30;;;;;;;53.50;22.62;;;;;;;-2.47;89.81;100786.53;1431813;90;22281;-81
2022/01/20 02:49:58;;;;;;;56.55;28.83;;;;;;;-2.52;90.62;100784.97;1430294;90;21600;-81
2022/01/20 02:52:27;;;;;;;59.42;27.25;;;;;;;-2.51;90.24;100781.92;1441201;89;21354;-81
2022/01/20 02:54:55;;;;;;;57.75;30.60;;;;;;;-2.50;90.30;100768.08;1462425;89;21360;-81
2022/01/20 02:57:24;;;;;;;59.58;29.48;;;;;;;-2.51;90.92;100779.33;1444688;89;21474;-81
2022/01/20 02:59:52;;;;;;;61.90;28.67;;;;;;;-2.58;91.94;100780.46;1467536;89;21405;-81
2022/01/20 03:02:19;;;;;;;66.40;30.00;;;;;;;-2.60;92.01;100771.89;1443391;89;22420;-81
2022/01/20 03:04:47;;;;;;;66.65;30.27;;;;;;;-2.60;91.68;100770.14;1442919;89;21419;-81
2022/01/20 03:07:15;;;;;;;62.85;30.12;;;;;;;-2.57;91.75;100761.41;1447724;89;21397;-81
2022/01/20 03:09:42;;;;;;;59.18;29.02;;;;;;;-2.54;91.72;100771.66;1450426;89;21294;-80
2022/01/20 03:12:10;;;;;;;64.80;30.48;;;;;;;-2.54;91.97;100766.48;1446941;88;22478;-80
2022/01/20 03:14:38;;;;;;;59.73;28.98;;;;;;;-2.53;91.90;100768.19;1452992;89;21513;-80
2022/01/20 03:17:06;;;;;;;65.05;30.40;;;;;;;-2.59;92.69;100756.30;1416597;89;22492;-80
2022/01/20 03:19:33;;;;;;;70.60;31.62;;;;;;;-2.62;93.66;100758.13;1433488;89;21437;-80
2022/01/20 03:22:01;;;;;;;62.95;27.40;;;;;;;-2.61;93.38;100755.50;1438868;88;21726;-80
2022/01/20 03:24:28;;;;;;;68.12;28.95;;;;;;;-2.62;93.97;100749.06;1451116;88;22439;-81
2022/01/20 03:26:55;;;;;;;63.23;30.35;;;;;;;-2.60;93.90;100745.52;1434506;89;21481;-79
2022/01/20 03:29:22;;;;;;;61.65;28.85;;;;;;;-2.56;93.47;100739.77;1433475;89;22435;-80
2022/01/20 03:31:49;;;;;;;59.50;30.27;;;;;;;-2.52;93.50;100736.17;1438337;88;21497;-80
2022/01/20 03:34:16;;;;;;;65.12;30.88;;;;;;;-2.52;93.76;100737.47;1439873;89;21600;-82
2022/01/20 03:36:43;;;;;;;62.80;27.87;;;;;;;-2.52;93.90;100745.25;1448987;89;21412;-82
2022/01/20 03:39:11;;;;;;;59.73;27.37;;;;;;;-2.52;93.88;100738.77;1436064;89;21465;-82
2022/01/20 03:41:38;;;;;;;59.00;28.45;;;;;;;-2.54;94.16;100731.48;1442032;89;21562;-82
2022/01/20 03:44:06;;;;;;;65.78;28.20;;;;;;;-2.54;94.39;100732.79;1427389;88;21585;-82
2022/01/20 03:46:34;;;;;;;57.03;25.45;;;;;;;-2.50;93.86;100727.91;1432776;89;21600;-82
2022/01/20 03:49:21;;;;;;;60.98;27.90;;;;;;;-2.50;93.83;100708.46;1452262;89;21405;-82
2022/01/20 03:51:38;;;;;;;62.10;27.55;;;;;;;-2.45;93.32;100706.97;1449166;89;21651;-81
2022/01/20 03:54:05;;;;;;;60.90;27.48;;;;;;;-2.40;93.21;100709.79;1430269;91;22390;-81
2022/01/20 03:56:33;;;;;;;54.58;28.60;;;;;;;-2.36;92.92;100707.49;1420600;90;22559;-81
2022/01/20 03:59:00;;;;;;;53.63;26.37;;;;;;;-2.36;92.96;100701.44;1416872;92;22543;-82
2022/01/20 04:01:27;;;;;;;51.73;24.72;;;;;;;-2.37;93.08;100688.09;1450516;89;21361;-81
2022/01/20 04:03:54;;;;;;;64.42;28.95;;;;;;;-2.38;92.87;100679.48;1451089;89;22613;-81
2022/01/20 04:06:23;;;;;;;58.75;27.73;;;;;;;-2.34;92.67;100662.89;1432366;90;21391;-82
2022/01/20 04:08:51;;;;;;;59.48;26.57;;;;;;;-2.30;92.72;100657.99;1418549;90;21652;-82
2022/01/20 04:11:27;;;;;;;52.25;28.20;;;;;;;-2.35;92.83;100662.50;1447743;89;21354;-82
2022/01/20 04:13:55;;;;;;;63.02;26.12;;;;;;;-2.36;92.54;100662.12;1450690;88;21512;-81
2022/01/20 04:16:38;;;;;;;51.92;25.85;;;;;;;-2.37;92.30;100666.89;1457690;89;21339;-81
2022/01/20 04:19:07;;;;;;;52.25;24.02;;;;;;;-2.37;91.98;100665.59;1436452;88;22346;-81
2022/01/20 04:21:37;;;;;;;59.60;25.72;;;;;;;-2.38;91.93;100676.88;1445157;88;22543;-80
2022/01/20 04:24:06;;;;;;;50.28;23.25;;;;;;;-2.38;91.38;100677.34;1434017;89;21518;-83
2022/01/20 04:26:35;;;;;;;47.43;23.15;;;;;;;-2.38;91.16;100678.64;1455773;89;21560;-82
2022/01/20 04:29:06;;;;;;;56.55;25.40;;;;;;;-2.38;91.06;100664.37;1453442;88;21471;-81
2022/01/20 04:31:35;;;;;;;56.65;24.43;;;;;;;-2.43;90.91;100648.98;1448180;89;21449;-82
2022/01/20 04:34:05;;;;;;;49.10;24.10;;;;;;;-2.42;90.68;100644.19;1419447;90;21577;-79
2022/01/20 04:36:38;;;;;;;58.48;25.05;;;;;;;-2.43;90.38;100633.89;1450115;89;21413;-78
2022/01/20 04:39:13;;;;;;;52.60;26.73;;;;;;;-2.47;90.38;100634.48;1456388;89;21413;-79
2022/01/20 04:41:44;;;;;;;47.83;23.83;;;;;;;-2.45;90.06;100636.99;1450105;88;22449;-81
2022/01/20 04:44:18;;;;;;;76.15;27.15;;;;;;;-2.53;89.90;100630.83;1426199;88;22344;-80
2022/01/20 04:46:49;;;;;;;52.78;27.02;;;;;;;-2.57;89.60;100628.78;1434725;90;21443;-79
2022/01/20 04:57:06;;;;;;;57.70;25.85;;;;;;;-2.80;89.13;100627.53;1433189;90;21634;-78
2022/01/20 04:59:29;;;;;;;68.67;28.67;;;;;;;-2.86;88.95;100606.58;1433197;90;21515;-78
2022/01/20 05:01:57;;;;;;;54.60;25.37;;;;;;;-2.88;88.75;100600.61;1428278;90;21493;-77
2022/01/20 05:04:25;;;;;;;62.75;30.10;;;;;;;-2.95;89.06;100604.34;1432964;91;22432;-79
2022/01/20 05:06:55;;;;;;;58.85;29.90;;;;;;;-2.95;88.99;100595.28;1432454;90;21553;-79
2022/01/20 05:09:22;;;;;;;66.12;29.15;;;;;;;-2.94;88.96;100593.07;1437520;90;22358;-79
2022/01/20 05:12:01;;;;;;;85.65;36.28;;;;;;;-2.93;88.83;100587.44;1430874;90;21420;-81
2022/01/20 05:14:29;;;;;;;65.25;33.25;;;;;;;-2.92;88.80;100601.64;1438562;89;21571;-79
2022/01/20 05:16:58;;;;;;;56.83;26.57;;;;;;;-2.96;88.57;100590.55;1441115;89;21430;-79
2022/01/20 05:19:29;;;;;;;51.40;27.10;;;;;;;-2.95;88.55;100590.94;1440625;89;22660;-79
2022/01/20 05:21:57;;;;;;;84.90;38.55;;;;;;;-2.93;88.52;100593.48;1439461;91;21464;-80
2022/01/20 05:24:25;;;;;;;66.50;32.30;;;;;;;-2.91;88.17;100599.43;1438186;91;21493;-80
2022/01/20 05:26:57;;;;;;;70.30;32.25;;;;;;;-2.92;87.96;100597.75;1432116;90;21594;-80
2022/01/20 05:29:25;;;;;;;48.50;23.77;;;;;;;-2.91;87.66;100600.72;1433911;90;21494;-79
2022/01/20 05:31:53;;;;;;;52.43;25.77;;;;;;;-2.95;87.24;100600.00;1431841;90;21563;-79
2022/01/20 05:34:20;;;;;;;59.98;27.52;;;;;;;-2.97;87.20;100597.91;1426638;89;21545;-80
2022/01/20 05:36:48;;;;;;;58.60;27.07;;;;;;;-3.03;87.08;100581.77;1430744;89;21633;-80
2022/01/20 05:39:16;;;;;;;59.73;29.30;;;;;;;-3.09;87.20;100567.77;1420951;90;21471;-80
2022/01/20 05:41:45;;;;;;;57.15;27.42;;;;;;;-3.10;87.23;100566.09;1432205;90;21593;-80
2022/01/20 05:44:12;;;;;;;54.77;26.23;;;;;;;-3.12;87.22;100553.19;1435866;89;21434;-81
2022/01/20 05:46:46;;;;;;;59.23;26.68;;;;;;;-3.17;87.54;100555.09;1436254;91;21463;-81
2022/01/20 05:49:09;;;;;;;51.35;26.12;;;;;;;-3.17;87.51;100572.77;1434191;90;21456;-80
2022/01/20 05:51:39;;;;;;;52.50;24.40;;;;;;;-3.12;87.52;100567.88;1425804;91;22519;-81
2022/01/20 05:54:08;;;;;;;54.95;24.47;;;;;;;-3.12;87.32;100567.88;1434266;90;21604;-81
2022/01/20 05:56:36;;;;;;;48.68;24.23;;;;;;;-3.09;87.10;100565.17;1431176;89;21470;-81
2022/01/20 05:59:03;;;;;;;48.78;24.37;;;;;;;-3.11;87.04;100568.27;1430893;90;21500;-80
2022/01/20 06:01:32;;;;;;;44.20;24.12;;;;;;;-3.12;87.01;100566.59;1441998;90;22549;-80
2022/01/20 06:04:02;;;;;;;58.33;25.77;;;;;;;-3.10;86.73;100554.44;1424849;90;21620;-79
2022/01/20 06:06:29;;;;;;;51.48;24.72;;;;;;;-3.10;86.69;100559.61;1437760;89;21575;-78
2022/01/20 06:08:56;;;;;;;49.45;25.17;;;;;;;-3.08;86.69;100561.67;1429247;89;21435;-79
2022/01/20 06:11:24;;;;;;;49.53;23.55;;;;;;;-3.04;86.41;100554.20;1442000;89;21660;-79
2022/01/20 06:13:51;;;;;;;48.65;24.57;;;;;;;-3.05;85.99;100555.08;1411767;90;21458;-78
2022/01/20 06:16:18;;;;;;;51.65;23.85;;;;;;;-3.08;85.90;100549.59;1417513;90;21432;-78
2022/01/20 06:18:45;;;;;;;48.30;24.43;;;;;;;-3.09;86.01;100531.05;1429478;90;21523;-78
2022/01/20 06:21:13;;;;;;;44.98;24.55;;;;;;;-3.08;85.96;100514.64;1427233;89;21620;-78
2022/01/20 06:23:40;;;;;;;52.75;23.52;;;;;;;-3.09;85.96;100527.17;1426756;90;21451;-79
2022/01/20 06:26:07;;;;;;;55.12;25.48;;;;;;;-3.05;85.87;100527.89;1408287;91;21475;-79
2022/01/20 06:28:40;;;;;;;50.78;23.90;;;;;;;-3.01;85.65;100534.66;1434782;90;21443;-79
2022/01/20 06:31:08;;;;;;;49.05;24.15;;;;;;;-3.00;85.68;100536.34;1438165;90;21510;-78
2022/01/20 06:33:36;;;;;;;47.23;24.37;;;;;;;-2.92;85.77;100531.70;1416402;90;21412;-78
2022/01/20 06:36:04;;;;;;;62.10;27.13;;;;;;;-2.88;85.53;100547.51;1440860;90;21572;-79
2022/01/20 06:38:32;;;;;;;44.70;24.70;;;;;;;-2.86;85.21;100544.41;1427527;89;21332;-79
2022/01/20 06:40:59;;;;;;;52.93;23.10;;;;;;;-2.82;85.33;100546.00;1437479;90;21355;-79
2022/01/20 06:43:28;;;;;;;44.48;24.05;;;;;;;-2.76;85.34;100548.81;1435187;90;21472;-80
2022/01/20 06:45:55;;;;;;;67.58;30.05;;;;;;;-2.65;85.47;100547.91;1419191;91;21443;-79
2022/01/20 06:48:23;;;;;;;60.55;24.52;;;;;;;-2.59;85.10;100548.98;1428701;90;21575;-81
2022/01/20 06:50:50;;;;;;;62.15;26.10;;;;;;;-2.54;84.94;100543.59;1422581;90;21431;-80
2022/01/20 06:53:18;;;;;;;51.58;26.35;;;;;;;-2.51;84.95;100540.88;1409360;91;21439;-80
2022/01/20 06:55:45;;;;;;;54.67;28.00;;;;;;;-2.47;84.76;100526.05;1420172;90;21683;-80
2022/01/20 06:58:13;;;;;;;41.58;22.30;;;;;;;-2.43;84.69;100531.05;1420792;90;22387;-80
2022/01/20 07:00:40;;;;;;;48.13;23.75;;;;;;;-2.44;84.93;100523.36;1432104;90;21509;-80
2022/01/20 07:03:07;;;;;;;55.25;23.70;;;;;;;-2.37;85.08;100511.36;1408952;91;21525;-80
2022/01/20 07:05:34;;;;;;;41.70;20.50;;;;;;;-2.30;85.07;100516.70;1438198;90;21591;-80
2022/01/20 07:08:01;;;;;;;44.98;20.97;;;;;;;-2.23;84.71;100503.47;1416595;90;21453;-80
2022/01/20 07:10:29;;;;;;;48.58;22.52;;;;;;;-2.16;84.47;100493.21;1421919;90;22539;-80
2022/01/20 07:12:56;;;;;;;40.83;19.77;;;;;;;-2.15;83.86;100501.40;1422525;90;21483;-80
2022/01/20 07:15:24;;;;;;;51.20;20.43;;;;;;;-2.12;83.90;100496.08;1436272;90;21535;-82
2022/01/20 07:17:52;;;;;;;34.67;19.00;;;;;;;-2.06;83.69;100503.14;1431728;89;22483;-82
2022/01/20 07:20:19;;;;;;;43.83;20.23;;;;;;;-2.02;83.55;100492.17;1406073;91;21623;-81
2022/01/20 07:22:46;;;;;;;40.52;20.82;;;;;;;-1.99;83.44;100483.42;1425889;91;21918;-81
2022/01/20 07:25:14;;;;;;;46.88;22.07;;;;;;;-1.97;83.49;100490.69;1421954;90;21627;-81
2022/01/20 07:27:41;;;;;;;57.75;24.50;;;;;;;-1.95;83.53;100485.83;1440401;90;21574;-79
2022/01/20 07:30:09;;;;;;;38.92;19.42;;;;;;;-1.93;83.53;100495.66;1429919;90;21522;-82
2022/01/20 07:32:38;;;;;;;46.48;21.75;;;;;;;-1.92;83.61;100489.58;1432087;90;21338;-80
2022/01/20 07:35:07;;;;;;;44.03;20.70;;;;;;;-1.92;83.38;100473.17;1431844;90;21572;-79
2022/01/20 07:37:35;;;;;;;41.02;18.85;;;;;;;-1.89;83.82;100474.34;1416462;90;22976;-79
2022/01/20 07:40:11;;;;;;;53.75;23.07;;;;;;;-1.85;83.80;100482.36;1423859;90;21717;-79
2022/01/20 07:42:38;;;;;;;36.73;18.92;;;;;;;-1.85;83.52;100481.06;1424529;90;21469;-79
2022/01/20 07:45:06;;;;;;;38.42;20.43;;;;;;;-1.87;83.61;100486.34;1407645;90;21496;-85
2022/01/20 07:47:47;;;;;;;43.83;23.30;;;;;;;-1.82;85.21;100484.36;1423587;89;21917;-81
2022/01/20 07:50:15;;;;;;;57.00;23.05;;;;;;;-1.60;87.07;100499.00;1419316;89;21854;-81
2022/01/20 07:52:42;;;;;;;41.73;19.27;;;;;;;-1.48;84.84;100491.95;1418059;91;21449;-80
2022/01/20 07:55:10;;;;;;;50.73;24.65;;;;;;;-1.49;83.77;100488.98;1413127;91;21438;-80
2022/01/20 07:57:37;;;;;;;49.38;25.08;;;;;;;-1.39;84.65;100478.54;1409287;91;21616;-80
2022/01/20 08:00:06;;;;;;;46.73;21.50;;;;;;;-1.33;83.39;100477.87;1404811;91;21490;-79
2022/01/20 08:02:34;;;;;;;40.52;20.27;;;;;;;-1.31;83.03;100472.17;1429018;90;21579;-80
2022/01/20 08:05:02;;;;;;;39.20;19.80;;;;;;;-1.30;82.57;100473.38;1408780;91;21656;-79
2022/01/20 08:07:29;;;;;;;51.95;25.55;;;;;;;-1.30;82.02;100477.73;1420384;91;21567;-79
2022/01/20 08:09:58;;;;;;;66.17;27.17;;;;;;;-1.30;82.47;100473.38;1381114;92;21573;-79
2022/01/20 08:12:27;;;;;;;46.73;22.73;;;;;;;-1.24;82.56;100482.18;1421931;89;22559;-79
2022/01/20 08:14:56;;;;;;;48.92;21.17;;;;;;;-1.24;82.33;100477.45;1366696;90;22271;-79
2022/01/20 08:17:23;;;;;;;42.40;23.10;;;;;;;-1.27;82.29;100476.30;1361437;90;21310;-79
2022/01/20 08:19:51;;;;;;;48.15;23.38;;;;;;;-1.23;82.37;100463.57;1355432;91;22408;-79
2022/01/20 08:22:18;;;;;;;43.52;22.42;;;;;;;-1.19;82.31;100465.09;1360612;91;21297;-79
2022/01/20 08:24:51;;;;;;;38.55;19.37;;;;;;;-1.20;82.22;100473.81;1373727;90;22252;-79
2022/01/20 08:27:17;;;;;;;36.35;20.50;;;;;;;-1.22;82.18;100467.84;1362993;90;23025;-79
2022/01/20 08:29:44;;;;;;;47.10;23.60;;;;;;;-1.21;82.47;100464.32;1361308;90;21342;-79
2022/01/20 08:32:11;;;;;;;53.73;25.85;;;;;;;-1.19;82.24;100454.25;1362736;92;22337;-80
2022/01/20 08:34:39;;;;;;;51.80;24.92;;;;;;;-1.22;82.13;100460.89;1423098;88;21428;-80
2022/01/20 08:37:19;;;;;;;45.98;21.60;;;;;;;-1.25;82.25;100442.85;1461899;88;21325;-79
2022/01/20 08:39:47;;;;;;;41.55;22.75;;;;;;;-1.26;82.54;100441.64;1443300;89;22358;-80
2022/01/20 08:42:14;;;;;;;34.08;18.45;;;;;;;-1.30;82.67;100460.86;1392364;91;21428;-79
2022/01/20 08:44:42;;;;;;;49.25;23.92;;;;;;;-1.34;82.93;100439.86;1443749;89;22825;-79
2022/01/20 08:47:15;;;;;;;43.48;23.32;;;;;;;-1.32;83.10;100426.33;1445086;89;21487;-79
2022/01/20 08:49:38;;;;;;;50.85;23.20;;;;;;;-1.29;83.24;100423.15;1414260;89;21349;-80
2022/01/20 08:52:06;;;;;;;42.75;20.97;;;;;;;-1.26;83.14;100418.27;1419036;89;21379;-80
2022/01/20 08:54:33;;;;;;;45.78;21.27;;;;;;;-1.27;83.25;100419.16;1430150;89;21294;-80
2022/01/20 08:57:01;;;;;;;41.40;22.37;;;;;;;-1.20;83.22;100427.06;1437996;89;22410;-79
2022/01/20 08:59:29;;;;;;;44.50;22.90;;;;;;;-1.19;83.08;100417.05;1428027;89;21406;-78
2022/01/20 09:01:56;;;;;;;37.42;21.55;;;;;;;-1.17;82.97;100421.27;1426016;90;21334;-79
2022/01/20 09:04:24;;;;;;;46.85;23.38;;;;;;;-1.11;82.73;100420.13;1420706;90;21489;-78
2022/01/20 09:06:51;;;;;;;41.85;19.73;;;;;;;-1.15;82.81;100425.09;1410908;89;22240;-78
2022/01/20 09:09:20;;;;;;;57.67;24.87;;;;;;;-1.08;82.68;100416.08;1468657;89;21434;-78
2022/01/20 09:17:19;;;;;;;44.05;21.35;;;;;;;-0.91;82.29;100397.92;1437442;90;21429;-78
2022/01/20 09:19:46;;;;;;;49.83;23.67;;;;;;;-0.83;82.17;100397.55;1426831;90;21466;-78
2022/01/20 09:22:14;;;;;;;46.80;23.22;;;;;;;-0.80;81.92;100389.60;1448927;89;23294;-78
2022/01/20 09:24:42;;;;;;;50.80;24.60;;;;;;;-0.76;81.92;100390.28;1437323;89;21631;-78
2022/01/20 09:27:09;;;;;;;43.45;23.18;;;;;;;-0.70;81.84;100387.38;1420504;90;21620;-79
2022/01/20 09:29:36;;;;;;;50.48;24.35;;;;;;;-0.69;81.73;100381.28;1441726;89;21680;-79
2022/01/20 09:32:06;;;;;;;41.65;23.27;;;;;;;-0.59;81.90;100376.45;1436546;89;21470;-80
2022/01/20 09:34:34;;;;;;;51.18;25.77;;;;;;;-0.59;81.37;100373.84;1446539;89;21478;-79
2022/01/20 09:37:02;;;;;;;52.53;24.92;;;;;;;-0.56;81.37;100381.02;1446118;89;21943;-79
2022/01/20 09:39:29;;;;;;;47.25;24.10;;;;;;;-0.51;81.58;100384.70;1451440;89;21605;-79
2022/01/20 09:42:12;;;;;;;44.77;23.42;;;;;;;-0.47;81.06;100379.71;1450001;90;22395;-80
2022/01/20 09:44:52;;;;;;;48.78;26.87;;;;;;;-0.47;81.18;100376.64;1414926;90;21452;-79
2022/01/20 09:47:19;;;;;;;53.97;25.57;;;;;;;-0.43;81.18;100375.19;1404404;90;22317;-79
2022/01/20 09:49:46;;;;;;;60.30;28.10;;;;;;;-0.40;80.99;100366.80;1432079;90;22442;-79
2022/01/20 09:52:14;;;;;;;39.87;21.33;;;;;;;-0.35;81.06;100369.14;1450865;89;22343;-79
2022/01/20 09:54:41;;;;;;;61.55;25.60;;;;;;;-0.34;80.89;100360.44;1447893;89;21608;-79
2022/01/20 09:57:08;;;;;;;54.80;26.27;;;;;;;-0.29;81.29;100356.67;1417501;90;21695;-78
2022/01/20 09:59:35;;;;;;;45.12;24.07;;;;;;;-0.28;80.99;100347.11;1449147;89;23261;-79
2022/01/20 10:02:05;;;;;;;45.23;23.43;;;;;;;-0.31;81.04;100337.70;1439124;90;21486;-79
2022/01/20 10:04:37;;;;;;;48.60;22.97;;;;;;;-0.29;81.28;100315.50;1406204;89;21539;-81
2022/01/20 10:07:09;;;;;;;43.73;22.30;;;;;;;-0.28;81.41;100314.13;1450703;89;21613;-81
2022/01/20 10:09:45;;;;;;;47.57;24.77;;;;;;;-0.23;81.49;100317.80;1387370;90;21458;-81
2022/01/20 10:12:15;;;;;;;40.13;23.57;;;;;;;-0.18;81.36;100313.16;1410686;89;22730;-81
2022/01/20 10:14:55;;;;;;;39.17;22.87;;;;;;;-0.10;81.29;100307.09;1421169;90;21446;-81
2022/01/20 10:17:31;;;;;;;41.53;21.33;;;;;;;-0.06;80.84;100320.77;1464522;90;22458;-81
2022/01/20 10:20:02;;;;;;;41.53;21.97;;;;;;;0.02;80.81;100300.85;1488685;89;21619;-82
2022/01/20 10:22:33;;;;;;;51.37;24.27;;;;;;;0.07;80.68;100289.27;1455081;89;22353;-82
2022/01/20 10:25:14;;;;;;;52.60;21.27;;;;;;;0.11;80.45;100283.43;1489810;89;21538;-82
2022/01/20 10:27:53;;;;;;;42.98;24.43;;;;;;;0.15;80.48;100279.75;1461362;89;21356;-82
2022/01/20 10:30:24;;;;;;;39.90;21.63;;;;;;;0.21;80.41;100269.00;1406260;90;21326;-84
2022/01/20 10:32:55;;;;;;;49.63;26.30;;;;;;;0.21;80.17;100271.60;1434228;89;22630;-81
2022/01/20 10:35:34;;;;;;;37.05;21.55;;;;;;;0.25;80.26;100265.28;1412904;91;21493;-83
2022/01/20 10:38:13;;;;;;;42.67;21.87;;;;;;;0.25;80.34;100258.78;1432107;89;22248;-83
2022/01/20 10:40:50;;;;;;;42.13;22.50;;;;;;;0.25;80.56;100267.89;1440488;89;21654;-84
2022/01/20 10:43:43;;;;;;;43.10;21.93;;;;;;;0.28;80.64;100262.51;1428511;89;21596;-83
2022/01/20 10:46:13;;;;;;;41.67;20.50;;;;;;;0.26;80.81;100251.37;1400097;91;21720;-82
2022/01/20 10:48:41;;;;;;;49.77;22.48;;;;;;;0.26;81.53;100251.37;1389932;90;21727;-83
2022/01/20 10:51:16;;;;;;;39.57;20.73;;;;;;;0.30;81.68;100238.54;1381228;90;22737;-83
2022/01/20 10:53:43;;;;;;;37.50;18.97;;;;;;;0.34;81.95;100227.02;1377841;91;21701;-84
2022/01/20 10:56:10;;;;;;;42.30;21.90;;;;;;;0.38;82.17;100235.05;1365675;91;21603;-83
2022/01/20 10:58:37;;;;;;;82.90;38.57;;;;;;;0.41;82.17;100227.52;1370841;90;21727;-83
2022/01/20 11:01:10;;;;;;;42.23;23.00;;;;;;;0.47;82.12;100218.52;1360501;90;22798;-83
2022/01/20 11:03:37;;;;;;;36.47;19.80;;;;;;;0.48;82.03;100199.36;1410731;91;21739;-82
2022/01/20 11:06:05;;;;;;;40.37;20.97;;;;;;;0.47;82.38;100197.70;1418168;91;21742;-83
2022/01/20 11:08:39;;;;;;;35.83;19.93;;;;;;;0.50;82.75;100193.61;1408060;91;21845;-84
2022/01/20 11:11:07;;;;;;;37.03;19.87;;;;;;;0.49;82.91;100184.96;1419599;90;21750;-84
2022/01/20 11:13:36;;;;;;;37.03;19.73;;;;;;;0.45;83.60;100179.07;1410112;90;21836;-83
2022/01/20 11:16:03;;;;;;;36.97;21.00;;;;;;;0.48;83.74;100179.83;1374728;91;22298;-84
2022/01/20 11:18:30;;;;;;;50.50;20.30;;;;;;;0.50;83.95;100187.93;1396110;93;22914;-82
2022/01/20 11:20:59;;;;;;;40.17;20.97;;;;;;;0.52;84.14;100174.80;1398281;93;21733;-84
2022/01/20 11:23:40;;;;;;;42.03;21.77;;;;;;;0.56;84.12;100175.02;1403079;91;21666;-83
2022/01/20 11:26:08;;;;;;;42.27;17.05;;;;;;;0.57;84.02;100164.96;1413982;90;21810;-84
2022/01/20 11:28:35;;;;;;;38.13;18.47;;;;;;;0.59;83.88;100169.63;1404656;91;21649;-84
2022/01/20 11:31:09;;;;;;;43.60;20.40;;;;;;;0.62;83.80;100169.44;1408767;91;21780;-84
2022/01/20 11:33:42;;;;;;;38.13;20.97;;;;;;;0.62;83.65;100166.37;1355308;93;21558;-85
2022/01/20 11:36:29;;;;;;;40.27;20.67;;;;;;;0.66;83.64;100161.81;1359821;93;21722;-84
2022/01/20 11:39:06;;;;;;;34.57;20.73;;;;;;;0.71;83.36;100138.11;1389866;91;21980;-85
2022/01/20 11:41:52;;;;;;;42.47;21.77;;;;;;;0.78;83.10;100134.22;1371213;91;22557;-85
2022/01/20 11:44:24;;;;;;;31.03;17.50;;;;;;;0.84;82.81;100139.05;1376380;91;21565;-84
2022/01/20 11:46:53;;;;;;;34.77;18.87;;;;;;;0.88;82.50;100141.36;1392460;90;23697;-85
2022/01/20 11:49:22;;;;;;;37.63;18.67;;;;;;;0.95;82.53;100130.56;1396808;90;21725;-84
2022/01/20 11:51:58;;;;;;;45.10;22.13;;;;;;;0.92;82.51;100135.49;1403789;91;22785;-85
2022/01/20 11:54:36;;;;;;;33.93;19.40;;;;;;;0.94;82.54;100132.81;1409645;90;22806;-84
2022/01/20 11:57:17;;;;;;;43.10;21.40;;;;;;;0.89;83.00;100140.45;1410456;90;21692;-87
2022/01/20 11:59:51;;;;;;;31.57;18.30;;;;;;;0.95;82.90;100132.73;1379822;93;21759;-86
2022/01/20 12:02:38;;;;;;;34.67;20.33;;;;;;;0.96;83.07;100121.36;1390279;92;22672;-87
2022/01/20 12:05:29;;;;;;;37.93;20.23;;;;;;;0.99;83.04;100124.25;1367665;93;21423;-85
2022/01/20 12:08:10;;;;;;;;;;;;;;;0.99;83.25;100121.17;1334973;93;21851;-86
2022/01/20 12:10:40;;;;;;;33.25;17.92;;;;;;;1.05;83.27;100107.77;1345852;93;20271;-88
2022/01/20 12:13:17;;;;;;;32.87;17.47;;;;;;;1.09;83.35;100100.58;1282945;93;22379;-84
2022/01/20 12:15:55;;;;;;;39.83;19.93;;;;;;;1.13;83.30;100086.45;1333795;93;21814;-86
2022/01/20 12:18:23;;;;;;;36.17;19.37;;;;;;;1.18;83.28;100081.79;1334288;93;21560;-87
2022/01/20 12:20:51;;;;;;;39.93;23.63;;;;;;;1.24;83.20;100086.61;1316186;94;21757;-87
2022/01/20 12:23:19;;;;;;;44.97;22.60;;;;;;;1.29;83.11;100072.80;1352041;92;22621;-86